Baldwin, New York
Current Conditions -  °F | °C
As of 5:21 AM on Thursday 23 Oct 2014 (Local Time) from KJFK Reporting Station
Light Rain Light Rain  
Wind Chill: 11°   Ceiling: 2700
Heat Index: 11°   Visibility: 8mi
Dew Point:   Wind: 17mph
Humidity: 88%   Direction: 350°N
Pressure: 29.69"   Gusts: NA
Location:  40.66°N, 73.61°W
Report Text: KJFK 230921Z 35015KT 8SM -RA FEW015 BKN027 OVC075 11/09 A2969 RMK AO2 P0005
Loading
Personal Weather Stations






























Interactive Weather Map
Tropical Storm Tracking
New forecast layout! Learn more

10-Day Weather Forecast

Advertisements
Track Severe Weather on mobile